sensor_id;sensor_type;location;lat;lon;timestamp;temperature;humidity
75961;SHT30;64644;48.914;2.254;2023-03-14T00:00:12;13.09;69.27
75961;SHT30;64644;48.914;2.254;2023-03-14T00:02:38;13.03;69.49
75961;SHT30;64644;48.914;2.254;2023-03-14T00:05:04;13.04;69.39
75961;SHT30;64644;48.914;2.254;2023-03-14T00:07:36;13.02;69.39
75961;SHT30;64644;48.914;2.254;2023-03-14T00:10:04;13.06;69.34
75961;SHT30;64644;48.914;2.254;2023-03-14T00:12:31;13.07;69.35
75961;SHT30;64644;48.914;2.254;2023-03-14T00:14:57;13.09;69.33
75961;SHT30;64644;48.914;2.254;2023-03-14T00:17:22;13.07;69.27
75961;SHT30;64644;48.914;2.254;2023-03-14T00:19:48;13.06;69.54
75961;SHT30;64644;48.914;2.254;2023-03-14T00:22:17;13.04;69.59
75961;SHT30;64644;48.914;2.254;2023-03-14T00:24:42;13.03;69.81
75961;SHT30;64644;48.914;2.254;2023-03-14T00:27:08;13.02;69.80
75961;SHT30;64644;48.914;2.254;2023-03-14T00:29:33;13.03;69.84
75961;SHT30;64644;48.914;2.254;2023-03-14T00:31:58;13.00;69.83
75961;SHT30;64644;48.914;2.254;2023-03-14T00:34:28;13.02;69.88
75961;SHT30;64644;48.914;2.254;2023-03-14T00:36:54;13.03;69.97
75961;SHT30;64644;48.914;2.254;2023-03-14T00:39:19;13.03;69.91
75961;SHT30;64644;48.914;2.254;2023-03-14T00:41:45;13.02;69.94
75961;SHT30;64644;48.914;2.254;2023-03-14T00:44:10;13.02;70.00
75961;SHT30;64644;48.914;2.254;2023-03-14T00:46:35;13.02;70.08
75961;SHT30;64644;48.914;2.254;2023-03-14T00:49:01;13.03;70.08
75961;SHT30;64644;48.914;2.254;2023-03-14T00:51:26;13.03;70.18
75961;SHT30;64644;48.914;2.254;2023-03-14T00:53:51;12.97;70.30
75961;SHT30;64644;48.914;2.254;2023-03-14T00:56:17;13.03;70.39
75961;SHT30;64644;48.914;2.254;2023-03-14T00:58:42;13.02;70.41
75961;SHT30;64644;48.914;2.254;2023-03-14T01:01:15;12.97;70.55
75961;SHT30;64644;48.914;2.254;2023-03-14T01:03:41;12.99;70.59
75961;SHT30;64644;48.914;2.254;2023-03-14T01:06:11;12.97;70.63
75961;SHT30;64644;48.914;2.254;2023-03-14T01:08:37;12.97;70.64
75961;SHT30;64644;48.914;2.254;2023-03-14T01:11:10;12.96;70.65
75961;SHT30;64644;48.914;2.254;2023-03-14T01:13:37;12.99;70.71
75961;SHT30;64644;48.914;2.254;2023-03-14T01:16:05;12.93;70.91
75961;SHT30;64644;48.914;2.254;2023-03-14T01:18:32;12.96;71.09
75961;SHT30;64644;48.914;2.254;2023-03-14T01:20:58;12.96;71.02
75961;SHT30;64644;48.914;2.254;2023-03-14T01:23:24;13.00;71.04
75961;SHT30;64644;48.914;2.254;2023-03-14T01:25:49;12.96;71.11
75961;SHT30;64644;48.914;2.254;2023-03-14T01:28:15;12.93;71.84
75961;SHT30;64644;48.914;2.254;2023-03-14T01:30:41;12.89;71.57
75961;SHT30;64644;48.914;2.254;2023-03-14T01:33:06;12.89;71.48
75961;SHT30;64644;48.914;2.254;2023-03-14T01:35:31;12.89;71.55
75961;SHT30;64644;48.914;2.254;2023-03-14T01:37:57;12.92;71.55
75961;SHT30;64644;48.914;2.254;2023-03-14T01:40:22;12.93;71.53
75961;SHT30;64644;48.914;2.254;2023-03-14T01:42:55;12.92;71.52
75961;SHT30;64644;48.914;2.254;2023-03-14T01:48:26;12.99;71.53
75961;SHT30;64644;48.914;2.254;2023-03-14T01:50:53;12.97;71.55
75961;SHT30;64644;48.914;2.254;2023-03-14T01:53:19;12.96;71.62
75961;SHT30;64644;48.914;2.254;2023-03-14T01:55:47;12.99;71.73
75961;SHT30;64644;48.914;2.254;2023-03-14T01:58:13;12.97;71.67
75961;SHT30;64644;48.914;2.254;2023-03-14T02:00:39;13.00;71.68
75961;SHT30;64644;48.914;2.254;2023-03-14T02:03:10;13.04;71.82
75961;SHT30;64644;48.914;2.254;2023-03-14T02:05:40;13.02;71.71
75961;SHT30;64644;48.914;2.254;2023-03-14T02:08:19;13.00;71.87
75961;SHT30;64644;48.914;2.254;2023-03-14T02:10:47;13.00;71.70
75961;SHT30;64644;48.914;2.254;2023-03-14T02:13:14;13.02;71.75
75961;SHT30;64644;48.914;2.254;2023-03-14T02:15:41;13.02;71.93
75961;SHT30;64644;48.914;2.254;2023-03-14T02:18:08;13.02;72.19
75961;SHT30;64644;48.914;2.254;2023-03-14T02:20:58;13.00;72.11
75961;SHT30;64644;48.914;2.254;2023-03-14T02:26:10;13.02;78.00
75961;SHT30;64644;48.914;2.254;2023-03-14T02:28:37;13.04;72.78
75961;SHT30;64644;48.914;2.254;2023-03-14T02:31:03;13.06;72.29
75961;SHT30;64644;48.914;2.254;2023-03-14T02:33:29;13.10;72.01
75961;SHT30;64644;48.914;2.254;2023-03-14T02:36:02;13.10;72.05
75961;SHT30;64644;48.914;2.254;2023-03-14T02:41:07;13.09;72.38
75961;SHT30;64644;48.914;2.254;2023-03-14T02:43:32;13.09;72.22
75961;SHT30;64644;48.914;2.254;2023-03-14T02:45:58;13.04;72.95
75961;SHT30;64644;48.914;2.254;2023-03-14T02:48:28;13.00;73.41
75961;SHT30;64644;48.914;2.254;2023-03-14T02:50:56;12.88;74.71
75961;SHT30;64644;48.914;2.254;2023-03-14T02:53:26;12.78;75.71
75961;SHT30;64644;48.914;2.254;2023-03-14T02:55:52;12.71;74.82
75961;SHT30;64644;48.914;2.254;2023-03-14T02:58:19;12.64;75.74
75961;SHT30;64644;48.914;2.254;2023-03-14T03:00:44;12.62;74.94
75961;SHT30;64644;48.914;2.254;2023-03-14T03:03:10;12.64;74.84
75961;SHT30;64644;48.914;2.254;2023-03-14T03:05:36;12.64;74.76
75961;SHT30;64644;48.914;2.254;2023-03-14T03:08:01;12.62;74.81
75961;SHT30;64644;48.914;2.254;2023-03-14T03:10:27;12.64;76.97
75961;SHT30;64644;48.914;2.254;2023-03-14T03:12:53;12.61;75.00
75961;SHT30;64644;48.914;2.254;2023-03-14T03:15:18;12.58;75.76
75961;SHT30;64644;48.914;2.254;2023-03-14T03:17:44;12.54;75.84
75961;SHT30;64644;48.914;2.254;2023-03-14T03:20:09;12.51;76.02
75961;SHT30;64644;48.914;2.254;2023-03-14T03:22:36;12.54;76.13
75961;SHT30;64644;48.914;2.254;2023-03-14T03:25:03;12.48;77.57
75961;SHT30;64644;48.914;2.254;2023-03-14T03:27:36;12.41;81.09
75961;SHT30;64644;48.914;2.254;2023-03-14T03:30:04;12.27;83.61
75961;SHT30;64644;48.914;2.254;2023-03-14T03:32:30;12.27;83.31
75961;SHT30;64644;48.914;2.254;2023-03-14T03:34:56;12.17;91.33
75961;SHT30;64644;48.914;2.254;2023-03-14T03:37:21;12.10;91.19
75961;SHT30;64644;48.914;2.254;2023-03-14T03:39:46;12.07;85.22
75961;SHT30;64644;48.914;2.254;2023-03-14T03:42:12;12.06;84.00
75961;SHT30;64644;48.914;2.254;2023-03-14T03:44:37;12.06;81.57
75961;SHT30;64644;48.914;2.254;2023-03-14T03:47:03;12.09;80.24
75961;SHT30;64644;48.914;2.254;2023-03-14T03:49:32;12.09;80.04
75961;SHT30;64644;48.914;2.254;2023-03-14T03:51:58;12.13;80.54
75961;SHT30;64644;48.914;2.254;2023-03-14T03:54:23;12.14;79.98
75961;SHT30;64644;48.914;2.254;2023-03-14T03:56:49;12.20;79.25
75961;SHT30;64644;48.914;2.254;2023-03-14T03:59:14;12.24;78.99
75961;SHT30;64644;48.914;2.254;2023-03-14T04:01:40;12.29;78.27
75961;SHT30;64644;48.914;2.254;2023-03-14T04:04:06;12.36;78.36
75961;SHT30;64644;48.914;2.254;2023-03-14T04:06:31;12.38;80.08
75961;SHT30;64644;48.914;2.254;2023-03-14T04:08:57;12.40;82.52
75961;SHT30;64644;48.914;2.254;2023-03-14T04:11:22;12.42;78.48
75961;SHT30;64644;48.914;2.254;2023-03-14T04:13:48;12.40;81.36
75961;SHT30;64644;48.914;2.254;2023-03-14T04:16:17;12.38;81.44
75961;SHT30;64644;48.914;2.254;2023-03-14T04:18:42;12.36;85.42
75961;SHT30;64644;48.914;2.254;2023-03-14T04:21:07;12.34;82.89
75961;SHT30;64644;48.914;2.254;2023-03-14T04:23:33;12.34;80.10
75961;SHT30;64644;48.914;2.254;2023-03-14T04:25:58;12.33;79.46
75961;SHT30;64644;48.914;2.254;2023-03-14T04:28:24;12.34;80.24
75961;SHT30;64644;48.914;2.254;2023-03-14T04:30:49;12.30;79.50
75961;SHT30;64644;48.914;2.254;2023-03-14T04:33:15;12.29;79.60
75961;SHT30;64644;48.914;2.254;2023-03-14T04:35:45;12.30;79.37
75961;SHT30;64644;48.914;2.254;2023-03-14T04:38:11;12.30;81.05
75961;SHT30;64644;48.914;2.254;2023-03-14T04:40:37;12.29;82.38
75961;SHT30;64644;48.914;2.254;2023-03-14T04:43:03;12.27;80.67
75961;SHT30;64644;48.914;2.254;2023-03-14T04:45:28;12.30;79.79
75961;SHT30;64644;48.914;2.254;2023-03-14T04:47:54;12.27;80.38
75961;SHT30;64644;48.914;2.254;2023-03-14T04:50:19;12.26;80.87
75961;SHT30;64644;48.914;2.254;2023-03-14T04:52:45;12.24;79.17
75961;SHT30;64644;48.914;2.254;2023-03-14T04:55:10;12.24;77.77
75961;SHT30;64644;48.914;2.254;2023-03-14T04:57:36;12.20;76.51
75961;SHT30;64644;48.914;2.254;2023-03-14T05:00:02;12.19;76.29
75961;SHT30;64644;48.914;2.254;2023-03-14T05:02:31;12.14;75.41
75961;SHT30;64644;48.914;2.254;2023-03-14T05:04:56;12.13;74.84
75961;SHT30;64644;48.914;2.254;2023-03-14T05:07:22;12.07;74.70
75961;SHT30;64644;48.914;2.254;2023-03-14T05:09:47;12.04;74.18
75961;SHT30;64644;48.914;2.254;2023-03-14T05:12:13;11.99;73.70
75961;SHT30;64644;48.914;2.254;2023-03-14T05:14:38;11.92;73.30
75961;SHT30;64644;48.914;2.254;2023-03-14T05:17:04;11.90;72.82
75961;SHT30;64644;48.914;2.254;2023-03-14T05:19:30;11.90;72.82
75961;SHT30;64644;48.914;2.254;2023-03-14T05:21:55;11.85;72.73
75961;SHT30;64644;48.914;2.254;2023-03-14T05:24:21;11.82;72.44
75961;SHT30;64644;48.914;2.254;2023-03-14T05:26:46;11.75;71.90
75961;SHT30;64644;48.914;2.254;2023-03-14T05:29:11;11.71;71.92
75961;SHT30;64644;48.914;2.254;2023-03-14T05:31:37;11.67;71.65
75961;SHT30;64644;48.914;2.254;2023-03-14T05:34:02;11.64;71.74
75961;SHT30;64644;48.914;2.254;2023-03-14T05:36:27;11.65;71.45
75961;SHT30;64644;48.914;2.254;2023-03-14T05:38:53;11.64;71.02
75961;SHT30;64644;48.914;2.254;2023-03-14T05:41:18;11.61;70.64
75961;SHT30;64644;48.914;2.254;2023-03-14T05:43:44;11.61;71.08
75961;SHT30;64644;48.914;2.254;2023-03-14T05:46:09;11.58;71.20
75961;SHT30;64644;48.914;2.254;2023-03-14T05:48:34;11.57;70.06
75961;SHT30;64644;48.914;2.254;2023-03-14T05:51:00;11.54;70.59
75961;SHT30;64644;48.914;2.254;2023-03-14T05:53:25;11.48;69.97
75961;SHT30;64644;48.914;2.254;2023-03-14T05:55:52;11.44;69.61
75961;SHT30;64644;48.914;2.254;2023-03-14T05:58:18;11.40;69.77
75961;SHT30;64644;48.914;2.254;2023-03-14T06:00:43;11.40;69.63
75961;SHT30;64644;48.914;2.254;2023-03-14T06:03:09;11.38;69.83
75961;SHT30;64644;48.914;2.254;2023-03-14T06:05:34;11.35;69.53
75961;SHT30;64644;48.914;2.254;2023-03-14T06:07:59;11.34;69.05
75961;SHT30;64644;48.914;2.254;2023-03-14T06:10:25;11.31;68.95
75961;SHT30;64644;48.914;2.254;2023-03-14T06:12:51;11.27;68.01
75961;SHT30;64644;48.914;2.254;2023-03-14T06:15:16;11.22;68.35
75961;SHT30;64644;48.914;2.254;2023-03-14T06:17:41;11.17;68.02
75961;SHT30;64644;48.914;2.254;2023-03-14T06:20:08;11.16;67.74
75961;SHT30;64644;48.914;2.254;2023-03-14T06:22:33;11.19;67.61
75961;SHT30;64644;48.914;2.254;2023-03-14T06:24:59;11.22;67.12
75961;SHT30;64644;48.914;2.254;2023-03-14T06:27:24;11.19;67.35
75961;SHT30;64644;48.914;2.254;2023-03-14T06:29:49;11.19;66.63
75961;SHT30;64644;48.914;2.254;2023-03-14T06:32:15;11.17;66.76
75961;SHT30;64644;48.914;2.254;2023-03-14T06:34:40;11.17;66.25
75961;SHT30;64644;48.914;2.254;2023-03-14T06:37:06;11.16;66.46
75961;SHT30;64644;48.914;2.254;2023-03-14T06:39:31;11.17;66.39
75961;SHT30;64644;48.914;2.254;2023-03-14T06:41:56;11.19;65.93
75961;SHT30;64644;48.914;2.254;2023-03-14T06:44:22;11.17;65.73
75961;SHT30;64644;48.914;2.254;2023-03-14T06:46:47;11.17;65.79
75961;SHT30;64644;48.914;2.254;2023-03-14T06:49:12;11.14;65.54
75961;SHT30;64644;48.914;2.254;2023-03-14T06:51:38;11.12;65.21
75961;SHT30;64644;48.914;2.254;2023-03-14T06:54:03;11.09;65.32
75961;SHT30;64644;48.914;2.254;2023-03-14T06:56:28;11.07;65.11
75961;SHT30;64644;48.914;2.254;2023-03-14T06:58:54;11.05;64.63
75961;SHT30;64644;48.914;2.254;2023-03-14T07:01:24;11.03;64.92
75961;SHT30;64644;48.914;2.254;2023-03-14T07:03:50;10.99;65.22
75961;SHT30;64644;48.914;2.254;2023-03-14T07:06:16;11.02;64.94
75961;SHT30;64644;48.914;2.254;2023-03-14T07:08:41;11.00;64.37
75961;SHT30;64644;48.914;2.254;2023-03-14T07:11:07;10.97;64.68
75961;SHT30;64644;48.914;2.254;2023-03-14T07:13:33;11.00;64.45
75961;SHT30;64644;48.914;2.254;2023-03-14T07:15:58;10.96;64.60
75961;SHT30;64644;48.914;2.254;2023-03-14T07:18:23;10.95;63.83
75961;SHT30;64644;48.914;2.254;2023-03-14T07:20:48;10.95;63.42
75961;SHT30;64644;48.914;2.254;2023-03-14T07:23:14;10.92;63.81
75961;SHT30;64644;48.914;2.254;2023-03-14T07:25:39;10.93;63.86
75961;SHT30;64644;48.914;2.254;2023-03-14T07:28:04;10.92;63.51
75961;SHT30;64644;48.914;2.254;2023-03-14T07:30:30;10.88;63.52
75961;SHT30;64644;48.914;2.254;2023-03-14T07:32:55;10.88;62.75
75961;SHT30;64644;48.914;2.254;2023-03-14T07:35:20;10.85;63.30
75961;SHT30;64644;48.914;2.254;2023-03-14T07:37:46;10.85;63.15
75961;SHT30;64644;48.914;2.254;2023-03-14T07:40:11;10.86;62.55
75961;SHT30;64644;48.914;2.254;2023-03-14T07:42:40;10.83;61.87
75961;SHT30;64644;48.914;2.254;2023-03-14T07:45:06;10.85;62.37
75961;SHT30;64644;48.914;2.254;2023-03-14T07:47:32;10.88;61.79
75961;SHT30;64644;48.914;2.254;2023-03-14T07:49:57;10.91;62.47
75961;SHT30;64644;48.914;2.254;2023-03-14T07:52:22;10.93;61.56
75961;SHT30;64644;48.914;2.254;2023-03-14T07:54:49;10.99;60.96
75961;SHT30;64644;48.914;2.254;2023-03-14T07:57:14;11.03;61.57
75961;SHT30;64644;48.914;2.254;2023-03-14T07:59:39;11.09;61.06
75961;SHT30;64644;48.914;2.254;2023-03-14T08:02:05;11.14;61.35
75961;SHT30;64644;48.914;2.254;2023-03-14T08:04:35;11.26;61.26
75961;SHT30;64644;48.914;2.254;2023-03-14T08:07:01;11.38;61.05
75961;SHT30;64644;48.914;2.254;2023-03-14T08:09:27;11.47;60.44
75961;SHT30;64644;48.914;2.254;2023-03-14T08:11:52;11.55;60.53
75961;SHT30;64644;48.914;2.254;2023-03-14T08:14:17;11.62;59.80
75961;SHT30;64644;48.914;2.254;2023-03-14T08:16:43;11.72;61.08
75961;SHT30;64644;48.914;2.254;2023-03-14T08:19:08;11.79;59.99
75961;SHT30;64644;48.914;2.254;2023-03-14T08:21:33;11.81;60.35
75961;SHT30;64644;48.914;2.254;2023-03-14T08:23:59;11.82;59.56
75961;SHT30;64644;48.914;2.254;2023-03-14T08:26:25;11.81;59.84
75961;SHT30;64644;48.914;2.254;2023-03-14T08:28:51;11.83;60.25
75961;SHT30;64644;48.914;2.254;2023-03-14T08:31:17;11.82;59.38
75961;SHT30;64644;48.914;2.254;2023-03-14T08:33:42;11.89;59.95
75961;SHT30;64644;48.914;2.254;2023-03-14T08:36:08;11.90;60.08
75961;SHT30;64644;48.914;2.254;2023-03-14T08:38:33;11.93;60.05
75961;SHT30;64644;48.914;2.254;2023-03-14T08:41:00;11.95;59.88
75961;SHT30;64644;48.914;2.254;2023-03-14T08:43:26;11.99;60.06
75961;SHT30;64644;48.914;2.254;2023-03-14T08:45:52;12.00;59.84
75961;SHT30;64644;48.914;2.254;2023-03-14T08:48:18;12.00;59.92
75961;SHT30;64644;48.914;2.254;2023-03-14T08:50:44;12.06;59.30
75961;SHT30;64644;48.914;2.254;2023-03-14T08:53:10;12.14;59.43
75961;SHT30;64644;48.914;2.254;2023-03-14T08:55:35;12.24;59.40
75961;SHT30;64644;48.914;2.254;2023-03-14T08:58:00;12.34;59.41
75961;SHT30;64644;48.914;2.254;2023-03-14T09:00:26;12.41;58.84
75961;SHT30;64644;48.914;2.254;2023-03-14T09:02:51;12.44;59.53
75961;SHT30;64644;48.914;2.254;2023-03-14T09:05:17;12.40;59.19
75961;SHT30;64644;48.914;2.254;2023-03-14T09:07:42;12.38;59.10
75961;SHT30;64644;48.914;2.254;2023-03-14T09:10:09;12.34;59.44
75961;SHT30;64644;48.914;2.254;2023-03-14T09:12:35;12.30;59.65
75961;SHT30;64644;48.914;2.254;2023-03-14T09:15:00;12.23;59.96
75961;SHT30;64644;48.914;2.254;2023-03-14T09:17:26;12.17;60.17
75961;SHT30;64644;48.914;2.254;2023-03-14T09:19:51;12.14;60.70
75961;SHT30;64644;48.914;2.254;2023-03-14T09:22:16;12.03;61.22
75961;SHT30;64644;48.914;2.254;2023-03-14T09:24:42;11.92;61.85
75961;SHT30;64644;48.914;2.254;2023-03-14T09:27:07;11.79;61.89
75961;SHT30;64644;48.914;2.254;2023-03-14T09:29:33;11.67;62.17
75961;SHT30;64644;48.914;2.254;2023-03-14T09:31:59;11.52;62.76
75961;SHT30;64644;48.914;2.254;2023-03-14T09:34:24;11.42;62.78
75961;SHT30;64644;48.914;2.254;2023-03-14T09:36:50;11.31;63.12
75961;SHT30;64644;48.914;2.254;2023-03-14T09:39:15;11.27;63.59
75961;SHT30;64644;48.914;2.254;2023-03-14T09:41:45;11.17;63.55
75961;SHT30;64644;48.914;2.254;2023-03-14T09:44:17;11.13;63.43
75961;SHT30;64644;48.914;2.254;2023-03-14T09:46:46;11.14;63.76
75961;SHT30;64644;48.914;2.254;2023-03-14T09:49:39;11.24;64.05
75961;SHT30;64644;48.914;2.254;2023-03-14T09:52:14;11.28;64.25
75961;SHT30;64644;48.914;2.254;2023-03-14T09:55:00;11.33;64.16
75961;SHT30;64644;48.914;2.254;2023-03-14T09:57:27;11.27;63.99
75961;SHT30;64644;48.914;2.254;2023-03-14T10:00:03;11.20;63.91
75961;SHT30;64644;48.914;2.254;2023-03-14T10:02:40;11.12;64.03
75961;SHT30;64644;48.914;2.254;2023-03-14T10:05:15;11.13;64.30
75961;SHT30;64644;48.914;2.254;2023-03-14T10:07:41;11.12;64.07
75961;SHT30;64644;48.914;2.254;2023-03-14T10:10:16;11.07;64.07
75961;SHT30;64644;48.914;2.254;2023-03-14T10:12:45;11.09;63.98
75961;SHT30;64644;48.914;2.254;2023-03-14T10:15:14;11.10;64.08
75961;SHT30;64644;48.914;2.254;2023-03-14T10:17:52;11.07;63.59
75961;SHT30;64644;48.914;2.254;2023-03-14T10:20:39;11.13;63.87
75961;SHT30;64644;48.914;2.254;2023-03-14T10:25:40;11.19;63.43
75961;SHT30;64644;48.914;2.254;2023-03-14T10:28:27;11.24;63.67
75961;SHT30;64644;48.914;2.254;2023-03-14T10:30:53;11.33;63.47
75961;SHT30;64644;48.914;2.254;2023-03-14T10:33:35;11.40;63.03
75961;SHT30;64644;48.914;2.254;2023-03-14T10:36:03;11.51;62.46
75961;SHT30;64644;48.914;2.254;2023-03-14T10:38:31;11.59;62.22
75961;SHT30;64644;48.914;2.254;2023-03-14T10:40:57;11.74;62.03
75961;SHT30;64644;48.914;2.254;2023-03-14T10:43:32;11.85;61.36
75961;SHT30;64644;48.914;2.254;2023-03-14T10:46:08;11.97;60.70
75961;SHT30;64644;48.914;2.254;2023-03-14T10:48:39;12.07;59.70
75961;SHT30;64644;48.914;2.254;2023-03-14T10:53:42;12.33;59.29
75961;SHT30;64644;48.914;2.254;2023-03-14T10:56:12;12.44;58.79
75961;SHT30;64644;48.914;2.254;2023-03-14T10:58:46;12.51;58.09
75961;SHT30;64644;48.914;2.254;2023-03-14T11:03:49;12.59;58.45
75961;SHT30;64644;48.914;2.254;2023-03-14T11:06:25;12.68;57.68
75961;SHT30;64644;48.914;2.254;2023-03-14T11:11:29;12.79;57.12
75961;SHT30;64644;48.914;2.254;2023-03-14T11:16:59;12.96;56.91
75961;SHT30;64644;48.914;2.254;2023-03-14T11:28:23;13.28;55.45
75961;SHT30;64644;48.914;2.254;2023-03-14T11:30:56;13.33;55.08
75961;SHT30;64644;48.914;2.254;2023-03-14T11:33:37;13.41;54.25
75961;SHT30;64644;48.914;2.254;2023-03-14T11:36:08;13.41;54.73
75961;SHT30;64644;48.914;2.254;2023-03-14T11:38:44;13.38;54.10
75961;SHT30;64644;48.914;2.254;2023-03-14T11:41:17;13.36;53.55
75961;SHT30;64644;48.914;2.254;2023-03-14T11:43:47;13.34;53.30
75961;SHT30;64644;48.914;2.254;2023-03-14T11:46:20;13.41;53.26
75961;SHT30;64644;48.914;2.254;2023-03-14T11:48:59;13.43;51.62
75961;SHT30;64644;48.914;2.254;2023-03-14T11:51:36;13.50;52.29
75961;SHT30;64644;48.914;2.254;2023-03-14T11:59:04;13.65;51.03
75961;SHT30;64644;48.914;2.254;2023-03-14T12:01:40;13.68;51.38
75961;SHT30;64644;48.914;2.254;2023-03-14T12:04:38;13.81;50.04
75961;SHT30;64644;48.914;2.254;2023-03-14T12:07:19;13.96;50.12
75961;SHT30;64644;48.914;2.254;2023-03-14T12:09:47;14.06;49.32
75961;SHT30;64644;48.914;2.254;2023-03-14T12:12:20;14.14;48.69
75961;SHT30;64644;48.914;2.254;2023-03-14T12:14:57;14.24;48.03
75961;SHT30;64644;48.914;2.254;2023-03-14T12:17:40;14.30;48.55
75961;SHT30;64644;48.914;2.254;2023-03-14T12:20:18;14.31;47.86
75961;SHT30;64644;48.914;2.254;2023-03-14T12:22:50;14.44;48.16
75961;SHT30;64644;48.914;2.254;2023-03-14T12:25:24;14.51;48.78
75961;SHT30;64644;48.914;2.254;2023-03-14T12:30:41;14.73;47.01
75961;SHT30;64644;48.914;2.254;2023-03-14T12:35:44;14.90;46.80
75961;SHT30;64644;48.914;2.254;2023-03-14T12:43:47;14.76;45.82
75961;SHT30;64644;48.914;2.254;2023-03-14T12:48:39;14.62;46.49
75961;SHT30;64644;48.914;2.254;2023-03-14T12:56:57;14.57;46.86
75961;SHT30;64644;48.914;2.254;2023-03-14T13:02:00;14.55;46.69
75961;SHT30;64644;48.914;2.254;2023-03-14T13:04:28;14.52;46.86
75961;SHT30;64644;48.914;2.254;2023-03-14T13:06:59;14.46;46.89
75961;SHT30;64644;48.914;2.254;2023-03-14T13:11:55;14.31;48.04
75961;SHT30;64644;48.914;2.254;2023-03-14T13:14:22;14.24;49.90
75961;SHT30;64644;48.914;2.254;2023-03-14T13:16:48;14.12;51.42
75961;SHT30;64644;48.914;2.254;2023-03-14T13:19:19;13.96;52.13
75961;SHT30;64644;48.914;2.254;2023-03-14T13:21:45;13.83;52.92
75961;SHT30;64644;48.914;2.254;2023-03-14T13:26:45;13.55;53.85
75961;SHT30;64644;48.914;2.254;2023-03-14T13:29:28;13.40;55.01
75961;SHT30;64644;48.914;2.254;2023-03-14T13:31:56;13.20;56.15
75961;SHT30;64644;48.914;2.254;2023-03-14T13:34:25;12.97;57.10
75961;SHT30;64644;48.914;2.254;2023-03-14T13:36:52;12.79;57.92
75961;SHT30;64644;48.914;2.254;2023-03-14T13:39:20;12.61;58.97
75961;SHT30;64644;48.914;2.254;2023-03-14T13:41:47;12.37;59.26
75961;SHT30;64644;48.914;2.254;2023-03-14T13:44:16;12.09;60.29
75961;SHT30;64644;48.914;2.254;2023-03-14T13:46:42;11.90;59.73
75961;SHT30;64644;48.914;2.254;2023-03-14T13:49:20;11.79;60.34
75961;SHT30;64644;48.914;2.254;2023-03-14T13:51:46;11.72;60.46
75961;SHT30;64644;48.914;2.254;2023-03-14T13:54:20;11.74;61.05
75961;SHT30;64644;48.914;2.254;2023-03-14T13:56:45;11.76;61.36
75961;SHT30;64644;48.914;2.254;2023-03-14T13:59:40;11.75;61.79
75961;SHT30;64644;48.914;2.254;2023-03-14T14:02:15;11.81;61.62
75961;SHT30;64644;48.914;2.254;2023-03-14T14:04:41;11.89;61.70
75961;SHT30;64644;48.914;2.254;2023-03-14T14:07:13;11.95;60.65
75961;SHT30;64644;48.914;2.254;2023-03-14T14:09:54;11.93;61.62
75961;SHT30;64644;48.914;2.254;2023-03-14T14:12:26;11.93;61.50
75961;SHT30;64644;48.914;2.254;2023-03-14T14:17:53;11.99;62.03
75961;SHT30;64644;48.914;2.254;2023-03-14T14:20:37;11.95;61.67
75961;SHT30;64644;48.914;2.254;2023-03-14T14:23:04;11.95;61.70
75961;SHT30;64644;48.914;2.254;2023-03-14T14:25:30;11.93;61.90
75961;SHT30;64644;48.914;2.254;2023-03-14T14:27:56;11.97;62.00
75961;SHT30;64644;48.914;2.254;2023-03-14T14:32:49;11.95;62.50
75961;SHT30;64644;48.914;2.254;2023-03-14T14:35:24;11.93;62.45
75961;SHT30;64644;48.914;2.254;2023-03-14T14:37:49;11.93;62.14
75961;SHT30;64644;48.914;2.254;2023-03-14T14:40:23;11.95;62.15
75961;SHT30;64644;48.914;2.254;2023-03-14T14:42:49;11.95;61.61
75961;SHT30;64644;48.914;2.254;2023-03-14T14:45:20;11.87;61.68
75961;SHT30;64644;48.914;2.254;2023-03-14T14:47:53;11.87;62.04
75961;SHT30;64644;48.914;2.254;2023-03-14T14:50:34;11.83;61.47
75961;SHT30;64644;48.914;2.254;2023-03-14T14:53:02;11.86;61.43
75961;SHT30;64644;48.914;2.254;2023-03-14T14:55:38;11.82;61.06
75961;SHT30;64644;48.914;2.254;2023-03-14T14:58:39;11.79;61.42
75961;SHT30;64644;48.914;2.254;2023-03-14T15:01:12;11.79;61.13
75961;SHT30;64644;48.914;2.254;2023-03-14T15:03:42;11.81;61.10
75961;SHT30;64644;48.914;2.254;2023-03-14T15:06:08;11.86;60.51
75961;SHT30;64644;48.914;2.254;2023-03-14T15:08:37;11.87;60.56
75961;SHT30;64644;48.914;2.254;2023-03-14T15:11:02;11.92;60.39
75961;SHT30;64644;48.914;2.254;2023-03-14T15:13:27;11.92;60.36
75961;SHT30;64644;48.914;2.254;2023-03-14T15:15:53;11.93;60.01
75961;SHT30;64644;48.914;2.254;2023-03-14T15:18:22;11.87;60.21
75961;SHT30;64644;48.914;2.254;2023-03-14T15:20:48;11.95;59.86
75961;SHT30;64644;48.914;2.254;2023-03-14T15:23:16;11.99;59.07
75961;SHT30;64644;48.914;2.254;2023-03-14T15:25:42;11.99;59.10
75961;SHT30;64644;48.914;2.254;2023-03-14T15:28:16;12.03;58.87
75961;SHT30;64644;48.914;2.254;2023-03-14T15:30:42;12.03;59.27
75961;SHT30;64644;48.914;2.254;2023-03-14T15:33:07;12.09;59.34
75961;SHT30;64644;48.914;2.254;2023-03-14T15:35:35;12.13;59.37
75961;SHT30;64644;48.914;2.254;2023-03-14T15:38:01;12.16;59.12
75961;SHT30;64644;48.914;2.254;2023-03-14T15:40:26;12.17;58.92
75961;SHT30;64644;48.914;2.254;2023-03-14T15:42:52;12.19;58.84
75961;SHT30;64644;48.914;2.254;2023-03-14T15:45:17;12.23;58.95
75961;SHT30;64644;48.914;2.254;2023-03-14T15:47:42;12.23;59.07
75961;SHT30;64644;48.914;2.254;2023-03-14T15:50:09;12.23;59.17
75961;SHT30;64644;48.914;2.254;2023-03-14T15:52:35;12.20;59.01
75961;SHT30;64644;48.914;2.254;2023-03-14T15:55:00;12.19;59.01
75961;SHT30;64644;48.914;2.254;2023-03-14T15:57:26;12.17;58.84
75961;SHT30;64644;48.914;2.254;2023-03-14T15:59:51;12.14;58.80
75961;SHT30;64644;48.914;2.254;2023-03-14T16:02:16;12.16;59.11
75961;SHT30;64644;48.914;2.254;2023-03-14T16:04:42;12.13;58.89
75961;SHT30;64644;48.914;2.254;2023-03-14T16:07:07;12.14;59.34
75961;SHT30;64644;48.914;2.254;2023-03-14T16:09:32;12.17;58.57
75961;SHT30;64644;48.914;2.254;2023-03-14T16:11:58;12.12;58.60
75961;SHT30;64644;48.914;2.254;2023-03-14T16:14:23;12.14;58.60
75961;SHT30;64644;48.914;2.254;2023-03-14T16:16:49;12.13;58.79
75961;SHT30;64644;48.914;2.254;2023-03-14T16:19:14;12.17;58.85
75961;SHT30;64644;48.914;2.254;2023-03-14T16:21:40;12.20;58.56
75961;SHT30;64644;48.914;2.254;2023-03-14T16:24:08;12.17;58.65
75961;SHT30;64644;48.914;2.254;2023-03-14T16:26:33;12.17;58.65
75961;SHT30;64644;48.914;2.254;2023-03-14T16:29:01;12.19;58.84
75961;SHT30;64644;48.914;2.254;2023-03-14T16:31:27;12.17;59.05
75961;SHT30;64644;48.914;2.254;2023-03-14T16:33:53;12.17;58.85
75961;SHT30;64644;48.914;2.254;2023-03-14T16:36:18;12.17;58.94
75961;SHT30;64644;48.914;2.254;2023-03-14T16:38:44;12.16;59.17
75961;SHT30;64644;48.914;2.254;2023-03-14T16:41:16;12.16;58.85